Thargomindah, Australia
Current Conditions -  °F | °C
As of 4:00 PM on Thursday 27 Nov 2014 (Local Time) from YBCV Reporting Station
Broken Clouds Broken Clouds  
Wind Chill: 91°   Ceiling: 12000
Heat Index: 91°   Visibility: 6mi
Dew Point: 48°   Wind: 10mph
Humidity: 23%   Direction: 100°E
Pressure: 29.88"   Gusts: NA
Location:  28°S, 143.82°E
Report Text: YBCV 270600Z AUTO 10009KT 9999 // BKN120 33/09 Q1012
Loading
Personal Weather Stations






























Interactive Weather Map New forecast layout! Learn more

10-Day Weather Forecast

Advertisements
Track Severe Weather on mobile